»·PEaware :: N413C KSBA-KBUR

N413C :: KSBA-KBUR

FLIGHT INFORMATION

Flight Status: Arrived
Operator: Privately registered:
United States
More flights under this callsign
Pilot: Alec D. (17934)
Aircraft: PIPER PA-23-235/250 AZTEC
(PA27)
More flights by this aircraft type
Origin: KSBA Santa Barbara Mun
United States
Destination: KBUR Bob Hope-Burbank
United States
More flights between these airports :: More routes between these airports
Route: KWANG CMA CMA078 TOAKS
File this flight plan on PilotEdge
Remarks:
Altitude:
(Current/Filed)
5,000ft
Speed:
(Current/Filed)
175kts
Departed: 12-Jul-18 09:15 AM
Arrived: 12-Jul-18 09:49 AM
Distance/Time
Traveled:
74nm/0:34
Distance/Time
To Go:
Arrived

Flight Plot

Page will automatically refresh every two minutes.


Map Options




Map Legend


Flown Route
Filed Route
Departure Airport
Arrival Airport
Navaid (VOR, NDB)
Fix

Horizontal Profiles

Position Reports

Time Latitude Longitude Heading Altitude Ground
Speed
12-Jul-18 08:54 34.423376 -119.835699 73 13ft 0kts
12-Jul-18 08:55 34.423376 -119.835699 73 13ft 0kts
12-Jul-18 08:56 34.423376 -119.835699 73 13ft 0kts
12-Jul-18 08:57 34.423376 -119.835698 73 13ft 0kts
12-Jul-18 08:58 34.423377 -119.835695 73 13ft 0kts
12-Jul-18 08:59 34.423377 -119.835693 73 13ft 0kts
12-Jul-18 09:00 34.423378 -119.835690 73 13ft 0kts
12-Jul-18 09:01 34.423379 -119.835687 73 13ft 0kts
12-Jul-18 09:02 34.423379 -119.835684 73 13ft 0kts
12-Jul-18 09:03 34.423380 -119.835682 73 13ft 0kts
12-Jul-18 09:04 34.423381 -119.835679 73 13ft 0kts
12-Jul-18 09:05 34.424569 -119.837484 344 13ft 16kts
12-Jul-18 09:06 34.428123 -119.837986 344 13ft 16kts
12-Jul-18 09:07 34.431157 -119.839283 159 13ft 0kts
12-Jul-18 09:08 34.431151 -119.839280 159 13ft 0kts
12-Jul-18 09:09 34.431133 -119.839272 160 13ft 0kts
12-Jul-18 09:10 34.431127 -119.839270 160 13ft 0kts
12-Jul-18 09:11 34.431121 -119.839267 160 13ft 0kts
12-Jul-18 09:12 34.431119 -119.839266 160 13ft 0kts
12-Jul-18 09:13 34.431116 -119.839265 160 13ft 0kts
12-Jul-18 09:14 34.430679 -119.839637 255 13ft 0kts
12-Jul-18 09:15 34.430611 -119.839957 253 13ft 11kts
12-Jul-18 09:16 34.422047 -119.837732 169 50ft 101kts
12-Jul-18 09:17 34.391697 -119.829124 165 1396ft 114kts
12-Jul-18 09:18 34.360868 -119.816705 158 2578ft 117kts
12-Jul-18 09:19 34.336255 -119.794617 102 3628ft 117kts
12-Jul-18 09:20 34.329145 -119.757230 104 4672ft 116kts
12-Jul-18 09:21 34.321923 -119.714539 101 5013ft 149kts
12-Jul-18 09:22 34.313352 -119.663254 102 5004ft 161kts
12-Jul-18 09:23 34.304001 -119.609637 102 5003ft 164kts
12-Jul-18 09:24 34.294478 -119.555341 102 5006ft 165kts
12-Jul-18 09:25 34.284941 -119.501134 103 5006ft 165kts
12-Jul-18 09:26 34.275376 -119.446908 103 5006ft 165kts
12-Jul-18 09:27 34.265753 -119.392515 102 5002ft 165kts
12-Jul-18 09:28 34.256091 -119.338034 102 5001ft 165kts
12-Jul-18 09:29 34.246394 -119.283513 102 4997ft 166kts
12-Jul-18 09:30 34.236535 -119.228205 103 4994ft 170kts
12-Jul-18 09:31 34.226457 -119.171878 102 5000ft 177kts
12-Jul-18 09:32 34.216148 -119.114396 102 4998ft 176kts
12-Jul-18 09:33 34.211408 -119.057185 92 4992ft 168kts
12-Jul-18 09:34 34.209726 -119.000707 92 4986ft 168kts
12-Jul-18 09:35 34.208059 -118.946004 92 4986ft 159kts
12-Jul-18 09:36 34.206468 -118.894387 92 4988ft 152kts
12-Jul-18 09:37 34.205437 -118.844968 89 4984ft 141kts
12-Jul-18 09:38 34.206383 -118.799183 92 4989ft 133kts
12-Jul-18 09:39 34.203990 -118.753607 94 4940ft 140kts
12-Jul-18 09:40 34.201472 -118.705799 93 4544ft 143kts
12-Jul-18 09:41 34.199385 -118.658033 88 3915ft 141kts
12-Jul-18 09:42 34.200915 -118.613541 89 3784ft 125kts
12-Jul-18 09:43 34.200857 -118.570835 91 3779ft 124kts
12-Jul-18 09:44 34.200110 -118.530390 91 3579ft 118kts
12-Jul-18 09:45 34.199497 -118.490605 90 2773ft 116kts
12-Jul-18 09:46 34.199009 -118.454617 90 2037ft 96kts
12-Jul-18 09:47 34.198559 -118.422619 91 1696ft 98kts
12-Jul-18 09:48 34.198175 -118.389997 88 1208ft 98kts
12-Jul-18 09:49 34.197773 -118.359749 88 781ft 55kts
12-Jul-18 09:50 34.198361 -118.355255 350 781ft 0kts
12-Jul-18 09:51 34.198587 -118.355292 351 781ft 13kts
12-Jul-18 09:52 34.198956 -118.360546 271 781ft 22kts
12-Jul-18 09:53 34.200009 -118.363923 20 781ft 7kts
12-Jul-18 09:54 34.200182 -118.363920 356 781ft 0kts

Navigation Log

Ident Type
Flight plan parsing failed, navigation log unavailable